createdAt,value
2019-06-26T00:01:00.474Z,23.1
2019-06-26T00:06:02.943Z,23.1
2019-06-26T00:11:05.456Z,23.1
2019-06-26T00:16:07.819Z,23
2019-06-26T00:21:10.244Z,23
2019-06-26T00:26:12.679Z,22.9
2019-06-26T00:31:15.192Z,22.8
2019-06-26T00:36:17.596Z,22.8
2019-06-26T00:41:20.131Z,22.8
2019-06-26T00:46:22.451Z,22.8
2019-06-26T00:51:24.900Z,22.7
2019-06-26T00:56:27.338Z,22.6
2019-06-26T01:01:29.826Z,22.4
2019-06-26T01:06:32.225Z,22.3
2019-06-26T01:11:34.820Z,22.2
2019-06-26T01:16:37.126Z,22.1
2019-06-26T01:21:39.549Z,22
2019-06-26T01:26:42.005Z,21.9
2019-06-26T01:31:44.444Z,21.9
2019-06-26T01:36:46.944Z,21.8
2019-06-26T01:41:49.419Z,21.8
2019-06-26T01:46:51.771Z,21.8
2019-06-26T01:51:54.263Z,21.8
2019-06-26T01:56:56.682Z,21.9
2019-06-26T02:01:59.132Z,21.8
2019-06-26T02:07:01.567Z,21.7
2019-06-26T02:12:04.115Z,21.7
2019-06-26T02:17:06.448Z,21.6
2019-06-26T02:22:08.878Z,21.5
2019-06-26T02:27:11.282Z,21.5
2019-06-26T02:32:13.772Z,21.4
2019-06-26T02:37:16.172Z,21.4
2019-06-26T02:42:18.834Z,21.4
2019-06-26T02:47:21.139Z,21.3
2019-06-26T02:52:23.512Z,21.2
2019-06-26T02:57:25.954Z,21.1
2019-06-26T03:02:28.430Z,21.1
2019-06-26T03:07:30.836Z,21
2019-06-26T03:12:33.335Z,20.9
2019-06-26T03:17:35.711Z,20.9
2019-06-26T03:22:38.135Z,20.9
2019-06-26T03:27:40.605Z,20.9
2019-06-26T03:32:43.103Z,20.9
2019-06-26T03:37:45.527Z,20.9
2019-06-26T03:42:48.011Z,20.9
2019-06-26T03:47:50.382Z,21
2019-06-26T03:52:52.803Z,21
2019-06-26T03:57:55.262Z,21.1
2019-06-26T04:02:57.680Z,21.1
2019-06-26T04:08:00.170Z,21.2
2019-06-26T04:13:02.559Z,21.3
2019-06-26T04:18:05.266Z,21.4
2019-06-26T04:23:07.439Z,21.5
2019-06-26T04:28:09.883Z,21.5
2019-06-26T04:33:12.347Z,21.6
2019-06-26T04:38:14.899Z,21.7
2019-06-26T04:43:17.324Z,21.8
2019-06-26T04:48:19.740Z,21.9
2019-06-26T04:53:22.104Z,22
2019-06-26T04:58:24.568Z,22.1
2019-06-26T05:03:27.026Z,22.2
2019-06-26T05:08:29.476Z,22.3
2019-06-26T05:13:31.980Z,22.4
2019-06-26T05:18:34.487Z,22.6
2019-06-26T05:23:36.774Z,22.7
2019-06-26T05:28:39.200Z,22.8
2019-06-26T05:33:41.654Z,22.9
2019-06-26T05:38:44.111Z,23.2
2019-06-26T05:43:46.624Z,23.3
2019-06-26T05:48:49.008Z,23.4
2019-06-26T05:53:51.451Z,23.5
2019-06-26T05:58:53.847Z,23.6
2019-06-26T06:03:56.521Z,23.7
2019-06-26T06:08:58.889Z,23.7
2019-06-26T06:14:01.257Z,23.8
2019-06-26T06:19:03.684Z,23.9
2019-06-26T06:24:06.047Z,24
2019-06-26T06:34:11.063Z,24.2
2019-06-26T06:39:13.385Z,24.3
2019-06-26T06:44:15.868Z,24.5
2019-06-26T06:49:18.262Z,24.7
2019-06-26T06:54:20.939Z,24.9
2019-06-26T06:59:23.195Z,25
2019-06-26T07:04:25.720Z,25.2
2019-06-26T07:09:28.032Z,25.3
2019-06-26T07:14:30.570Z,25.4
2019-06-26T07:19:32.931Z,25.6
2019-06-26T07:24:35.368Z,25.7
2019-06-26T07:29:37.795Z,25.9
2019-06-26T07:34:40.246Z,26
2019-06-26T07:39:42.723Z,26.1
2019-06-26T07:44:45.747Z,26.2
2019-06-26T07:49:47.569Z,26.3
2019-06-26T07:54:50.058Z,26.4
2019-06-26T07:59:52.443Z,26.5
2019-06-26T08:04:54.970Z,26.6
2019-06-26T08:09:57.352Z,26.7
2019-06-26T08:14:59.775Z,26.7
2019-06-26T08:20:02.275Z,26.8
2019-06-26T08:25:04.650Z,26.9
2019-06-26T08:30:07.103Z,27
2019-06-26T08:35:09.761Z,27.1
2019-06-26T08:40:12.051Z,27.2
2019-06-26T08:45:14.578Z,27.3
2019-06-26T08:50:16.948Z,27.4
2019-06-26T08:55:19.376Z,27.5
2019-06-26T09:00:21.798Z,27.6
2019-06-26T09:05:24.453Z,27.7
2019-06-26T09:10:26.661Z,27.8
2019-06-26T09:15:29.201Z,27.9
2019-06-26T09:20:31.551Z,28
2019-06-26T09:25:34.002Z,28.1
2019-06-26T09:30:36.518Z,28.2
2019-06-26T09:35:38.941Z,28.3
2019-06-26T09:40:41.295Z,28.4
2019-06-26T09:45:43.892Z,28.5
2019-06-26T09:50:46.170Z,28.6
2019-06-26T09:55:48.662Z,28.8
2019-06-26T10:00:51.053Z,28.9
2019-06-26T10:05:53.633Z,29
2019-06-26T10:10:55.928Z,29.2
2019-06-26T10:16:00.662Z,29.3
2019-06-26T10:21:00.814Z,29.5
2019-06-26T10:31:05.732Z,29.8
2019-06-26T10:36:08.162Z,30
2019-06-26T10:41:10.585Z,30.1
2019-06-26T10:46:13.027Z,30.3
2019-06-26T10:51:15.536Z,30.5
2019-06-26T10:56:17.920Z,30.8
2019-06-26T11:01:20.810Z,31.2
2019-06-26T11:06:22.873Z,31.4
2019-06-26T11:11:25.314Z,31.7
2019-06-26T11:16:27.814Z,31.9
2019-06-26T11:21:30.137Z,32.1
2019-06-26T11:26:32.626Z,32.4
2019-06-26T11:31:35.082Z,32.8
2019-06-26T11:36:37.558Z,33
2019-06-26T11:41:39.898Z,33
2019-06-26T11:46:42.342Z,33.2
2019-06-26T11:51:44.829Z,33.3
2019-06-26T11:56:47.271Z,33.5
2019-06-26T12:01:49.674Z,33.6
2019-06-26T12:06:52.148Z,33.9
2019-06-26T12:11:54.595Z,34
2019-06-26T12:16:56.991Z,34.1
2019-06-26T12:21:59.531Z,34.4
2019-06-26T12:27:01.902Z,34.4
2019-06-26T12:32:04.390Z,34.5
2019-06-26T12:37:06.859Z,34.7
2019-06-26T12:42:09.193Z,34.9
2019-06-26T12:47:11.681Z,34.8
2019-06-26T12:52:16.910Z,35
2019-06-26T12:57:16.586Z,35
2019-06-26T13:02:19.014Z,35.2
2019-06-26T13:07:21.665Z,35.2
2019-06-26T13:27:31.240Z,35.6
2019-06-26T13:32:33.805Z,35.8
2019-06-26T13:37:36.129Z,35.8
2019-06-26T13:42:38.532Z,35.9
2019-06-26T13:47:41.007Z,36
2019-06-26T13:52:43.492Z,36.3
2019-06-26T13:57:45.880Z,36.5
2019-06-26T14:02:48.483Z,36.6
2019-06-26T14:07:50.814Z,36.8
2019-06-26T14:12:53.216Z,37
2019-06-26T14:17:55.678Z,37.1
2019-06-26T14:22:58.165Z,37.4
2019-06-26T14:28:00.798Z,38
2019-06-26T14:33:02.977Z,38.3
2019-06-26T14:38:05.471Z,38.7
2019-06-26T14:43:08.195Z,38.9
2019-06-26T14:48:11.354Z,39
2019-06-26T14:53:12.755Z,39.3
2019-06-26T14:58:15.337Z,39.6
2019-06-26T15:03:17.636Z,39.9
2019-06-26T15:08:20.125Z,40.5
2019-06-26T15:13:22.594Z,41.2
2019-06-26T15:18:24.979Z,41.8
2019-06-26T15:23:27.554Z,42.2
2019-06-26T15:28:29.865Z,42.1
2019-06-26T15:33:32.315Z,42.4
2019-06-26T15:38:34.830Z,42.4
2019-06-26T15:43:37.285Z,42.7
2019-06-26T15:48:39.636Z,43.1
2019-06-26T15:53:42.351Z,43.5
2019-06-26T15:58:44.551Z,43.5
2019-06-26T16:03:46.953Z,43.4
2019-06-26T16:08:49.410Z,43.1
2019-06-26T16:13:52.221Z,43.2
2019-06-26T16:23:56.873Z,41.5
2019-06-26T16:28:59.327Z,40.9
2019-06-26T16:34:01.608Z,40.3
2019-06-26T16:39:04.058Z,38.7
2019-06-26T16:44:06.517Z,37.4
2019-06-26T16:49:09.212Z,36.4
2019-06-26T16:54:11.434Z,35.8
2019-06-26T16:59:13.838Z,35.3
2019-06-26T17:04:16.285Z,34.9
2019-06-26T17:09:18.748Z,34.6
2019-06-26T17:14:21.249Z,34.3
2019-06-26T17:19:23.581Z,34.1
2019-06-26T17:24:26.042Z,33.9
2019-06-26T17:29:28.531Z,33.7
2019-06-26T17:34:30.921Z,33.5
2019-06-26T17:39:33.419Z,33.3
2019-06-26T17:44:36.091Z,33.2
2019-06-26T17:49:38.264Z,33
2019-06-26T17:54:40.689Z,32.9
2019-06-26T17:59:43.159Z,32.7
2019-06-26T18:09:48.117Z,32.4
2019-06-26T18:14:51.041Z,32.2
2019-06-26T18:19:54.038Z,32.1
2019-06-26T18:24:55.836Z,32
2019-06-26T18:29:57.805Z,31.8
2019-06-26T18:35:00.214Z,31.6
2019-06-26T18:40:02.708Z,31.5
2019-06-26T18:45:05.126Z,31.3
2019-06-26T18:50:07.618Z,31.1
2019-06-26T18:55:10.021Z,30.9
2019-06-26T19:00:12.649Z,30.7
2019-06-26T19:10:17.333Z,30.4
2019-06-26T19:15:19.868Z,30.3
2019-06-26T19:20:22.458Z,30.2
2019-06-26T19:25:24.762Z,30.1
2019-06-26T19:30:27.104Z,30
2019-06-26T19:35:29.574Z,29.9
2019-06-26T19:40:31.991Z,29.8
2019-06-26T19:45:34.440Z,29.7
2019-06-26T19:50:36.870Z,29.6
2019-06-26T19:55:39.336Z,29.4
2019-06-26T20:00:41.762Z,29.4
2019-06-26T20:05:44.227Z,29.2
2019-06-26T20:10:46.711Z,29.1
2019-06-26T20:15:49.095Z,29
2019-06-26T20:20:51.613Z,28.9
2019-06-26T20:25:54.032Z,28.8
2019-06-26T20:30:56.392Z,28.8
2019-06-26T20:35:58.834Z,28.7
2019-06-26T20:41:01.402Z,28.6
2019-06-26T20:46:03.784Z,28.5
2019-06-26T20:51:06.202Z,28.4
2019-06-26T20:56:08.656Z,28.3
2019-06-26T21:01:11.033Z,28.2
2019-06-26T21:06:13.502Z,28.1
2019-06-26T21:11:16.025Z,28
2019-06-26T21:16:18.398Z,27.9
2019-06-26T21:21:20.826Z,27.7
2019-06-26T21:26:23.404Z,27.6
2019-06-26T21:31:25.971Z,27.5
2019-06-26T21:36:28.154Z,27.4
2019-06-26T21:41:30.588Z,27.3
2019-06-26T21:46:33.044Z,27.1
2019-06-26T21:51:35.472Z,27
2019-06-26T21:56:38.047Z,27
2019-06-26T22:06:44.357Z,26.8
2019-06-26T22:11:45.358Z,26.8
2019-06-26T22:16:47.668Z,26.8
2019-06-26T22:21:50.147Z,26.7
2019-06-26T22:26:52.574Z,26.6
2019-06-26T22:31:54.993Z,26.6
2019-06-26T22:36:57.450Z,26.5
2019-06-26T22:41:59.889Z,26.5
2019-06-26T22:47:02.345Z,26.4
2019-06-26T22:52:04.822Z,26.3
2019-06-26T22:57:07.225Z,26.3
2019-06-26T23:02:09.636Z,26.2
2019-06-26T23:07:12.105Z,26.1
2019-06-26T23:12:14.690Z,26
2019-06-26T23:17:17.034Z,25.9
2019-06-26T23:22:19.439Z,25.9
2019-06-26T23:27:21.862Z,25.7
2019-06-26T23:32:24.322Z,25.6
2019-06-26T23:37:26.744Z,25.6
2019-06-26T23:42:29.277Z,25.5
2019-06-26T23:47:31.674Z,25.4
2019-06-26T23:52:34.177Z,25.3
2019-06-26T23:57:39.525Z,25.3
